createdAt,value
2022-09-09T00:00:22.574Z,98228.63
2022-09-09T00:02:59.097Z,98232.34
2022-09-09T00:05:43.958Z,98238.59
2022-09-09T00:08:13.957Z,98227.06
2022-09-09T00:10:42.811Z,98225.25
2022-09-09T00:13:17.101Z,98220.72
2022-09-09T00:15:43.530Z,98227.81
2022-09-09T00:18:18.873Z,98233.31
2022-09-09T00:21:18.272Z,98231.53
2022-09-09T00:23:49.731Z,98226.06
2022-09-09T00:26:34.628Z,98224.31
2022-09-09T00:29:00.928Z,98226.81
2022-09-09T00:31:32.132Z,98226.88
2022-09-09T00:34:01.914Z,98229.53
2022-09-09T00:36:29.988Z,98221.53
2022-09-09T00:38:57.750Z,98218.06
2022-09-09T00:41:24.078Z,98216.25
2022-09-09T00:43:58.626Z,98220.72
2022-09-09T00:46:41.712Z,98219.03
2022-09-09T00:49:26.538Z,98218.88
2022-09-09T00:52:11.977Z,98213.63
2022-09-09T00:54:48.650Z,98211.97
2022-09-09T00:57:24.674Z,98216.44
2022-09-09T01:00:14.334Z,98224.44
2022-09-09T01:02:47.030Z,98226.28
2022-09-09T01:05:18.277Z,98226.22
2022-09-09T01:07:47.817Z,98228.84
2022-09-09T01:10:33.010Z,98223.44
2022-09-09T01:13:02.216Z,98220.00
2022-09-09T01:15:29.917Z,98214.63
2022-09-09T01:18:02.476Z,98222.53
2022-09-09T01:20:38.132Z,98218.00
2022-09-09T01:23:21.385Z,98216.19
2022-09-09T01:26:07.124Z,98216.19
2022-09-09T01:28:36.480Z,98211.84
2022-09-09T01:31:04.359Z,98210.91
2022-09-09T01:33:31.201Z,98218.97
2022-09-09T01:36:04.245Z,98225.31
2022-09-09T01:38:32.147Z,98220.94
2022-09-09T01:40:59.479Z,98219.97
2022-09-09T01:43:26.657Z,98210.84
2022-09-09T01:45:55.135Z,98207.25
2022-09-09T01:48:22.569Z,98215.25
2022-09-09T01:50:49.017Z,98210.97
2022-09-09T01:53:17.905Z,98211.84
2022-09-09T01:55:50.714Z,98216.38
2022-09-09T01:58:17.080Z,98216.25
2022-09-09T02:00:45.517Z,98209.03
2022-09-09T02:03:32.162Z,98213.41
2022-09-09T02:06:01.517Z,98216.19
2022-09-09T02:08:34.279Z,98216.31
2022-09-09T02:11:04.651Z,98220.59
2022-09-09T02:13:33.838Z,98215.38
2022-09-09T02:16:05.072Z,98217.25
2022-09-09T02:18:41.197Z,98217.13
2022-09-09T02:21:08.042Z,98215.25
2022-09-09T02:23:35.665Z,98217.25
2022-09-09T02:26:03.066Z,98208.41
2022-09-09T02:28:31.412Z,98214.56
2022-09-09T02:30:57.921Z,98206.63
2022-09-09T02:33:26.438Z,98208.28
2022-09-09T02:35:53.816Z,98210.03
2022-09-09T02:38:21.861Z,98212.59
2022-09-09T02:40:48.318Z,98214.38
2022-09-09T02:43:17.316Z,98206.31
2022-09-09T02:45:51.615Z,98210.84
2022-09-09T02:48:35.847Z,98208.19
2022-09-09T02:51:16.559Z,98209.91
2022-09-09T02:54:04.397Z,98208.19
2022-09-09T02:56:33.805Z,98202.63
2022-09-09T02:59:00.461Z,98195.63
2022-09-09T03:01:26.904Z,98202.72
2022-09-09T03:03:53.349Z,98202.63
2022-09-09T03:06:19.758Z,98202.66
2022-09-09T03:08:49.360Z,98202.50
2022-09-09T03:11:16.212Z,98210.72
2022-09-09T03:13:42.575Z,98209.03
2022-09-09T03:16:09.010Z,98212.72
2022-09-09T03:18:35.563Z,98209.09
2022-09-09T03:21:02.076Z,98210.84
2022-09-09T03:23:29.032Z,98208.28
2022-09-09T03:25:58.053Z,98201.97
2022-09-09T03:28:26.083Z,98202.94
2022-09-09T03:30:52.915Z,98204.81
2022-09-09T03:33:19.310Z,98201.22
2022-09-09T03:35:48.580Z,98203.66
2022-09-09T03:38:14.996Z,98208.06
2022-09-09T03:40:49.698Z,98202.91
2022-09-09T03:43:17.534Z,98206.63
2022-09-09T03:45:48.560Z,98208.41
2022-09-09T03:48:16.257Z,98207.47
2022-09-09T03:50:49.470Z,98210.16
2022-09-09T03:53:16.575Z,98195.00
2022-09-09T03:55:46.624Z,98208.41
2022-09-09T03:58:14.194Z,98205.75
2022-09-09T04:00:46.018Z,98207.47
2022-09-09T04:03:13.053Z,98202.94
2022-09-09T04:05:43.242Z,98206.38
2022-09-09T04:08:09.686Z,98202.09
2022-09-09T04:10:39.097Z,98203.94
2022-09-09T04:13:05.863Z,98206.72
2022-09-09T04:15:33.138Z,98203.31
2022-09-09T04:17:59.586Z,98206.91
2022-09-09T04:20:25.947Z,98201.63
2022-09-09T04:22:52.310Z,98206.84
2022-09-09T04:25:18.685Z,98207.66
2022-09-09T04:27:45.163Z,98199.63
2022-09-09T04:30:13.277Z,98208.47
2022-09-09T04:32:39.664Z,98205.91
2022-09-09T04:35:06.109Z,98205.16
2022-09-09T04:37:32.437Z,98206.72
2022-09-09T04:39:59.014Z,98205.75
2022-09-09T04:42:26.336Z,98216.44
2022-09-09T04:44:52.796Z,98206.63
2022-09-09T04:47:19.133Z,98214.66
2022-09-09T04:49:45.534Z,98219.91
2022-09-09T04:52:11.923Z,98216.25
2022-09-09T04:54:38.254Z,98219.72
2022-09-09T04:57:04.628Z,98220.66
2022-09-09T04:59:31.210Z,98221.59
2022-09-09T05:01:57.788Z,98218.09
2022-09-09T05:04:24.142Z,98218.97
2022-09-09T05:06:51.301Z,98210.84
2022-09-09T05:09:17.656Z,98216.19
2022-09-09T05:11:44.909Z,98221.34
2022-09-09T05:14:13.081Z,98219.63
2022-09-09T05:16:39.535Z,98228.63
2022-09-09T05:19:05.949Z,98228.50
2022-09-09T05:21:32.396Z,98234.78
2022-09-09T05:23:59.290Z,98242.78
2022-09-09T05:26:25.683Z,98240.97
2022-09-09T05:28:52.109Z,98226.81
2022-09-09T05:31:19.451Z,98235.94
2022-09-09T05:33:47.196Z,98240.50
2022-09-09T05:36:14.759Z,98229.94
2022-09-09T05:38:41.750Z,98231.56
2022-09-09T05:41:08.670Z,98229.66
2022-09-09T05:43:36.777Z,98235.88
2022-09-09T05:46:08.936Z,98231.41
2022-09-09T05:48:36.938Z,98237.56
2022-09-09T05:51:04.221Z,98239.31
2022-09-09T05:53:35.294Z,98235.94
2022-09-09T05:56:01.729Z,98248.38
2022-09-09T05:58:28.594Z,98240.34
2022-09-09T06:01:01.935Z,98237.50
2022-09-09T06:03:28.313Z,98245.56
2022-09-09T06:06:08.006Z,98237.44
2022-09-09T06:08:35.121Z,98247.00
2022-09-09T06:11:05.715Z,98242.53
2022-09-09T06:13:32.484Z,98239.91
2022-09-09T06:15:59.480Z,98245.25
2022-09-09T06:18:28.709Z,98240.91
2022-09-09T06:21:02.195Z,98240.91
2022-09-09T06:23:29.322Z,98237.38
2022-09-09T06:26:02.845Z,98258.81
2022-09-09T06:28:29.227Z,98254.13
2022-09-09T06:30:59.853Z,98245.94
2022-09-09T06:33:26.433Z,98255.38
2022-09-09T06:35:54.174Z,98251.63
2022-09-09T06:38:20.610Z,98247.78
2022-09-09T06:40:55.372Z,98253.78
2022-09-09T06:43:21.802Z,98250.88
2022-09-09T06:46:01.419Z,98255.06
2022-09-09T06:48:29.150Z,98257.59
2022-09-09T06:51:04.722Z,98257.56
2022-09-09T06:53:32.137Z,98253.88
2022-09-09T06:55:58.562Z,98257.47
2022-09-09T06:58:24.911Z,98252.03
2022-09-09T07:00:51.372Z,98260.06
2022-09-09T07:03:18.298Z,98251.19
2022-09-09T07:05:45.270Z,98258.19
2022-09-09T07:08:11.727Z,98259.06
2022-09-09T07:10:38.189Z,98258.13
2022-09-09T07:13:05.634Z,98263.50
2022-09-09T07:15:33.796Z,98260.69
2022-09-09T07:18:02.278Z,98260.75
2022-09-09T07:20:28.649Z,98262.63
2022-09-09T07:22:55.811Z,98254.53
2022-09-09T07:25:22.991Z,98258.19
2022-09-09T07:27:50.215Z,98255.53
2022-09-09T07:30:22.951Z,98247.38
2022-09-09T07:32:52.860Z,98249.94
2022-09-09T07:35:19.303Z,98251.66
2022-09-09T07:37:50.670Z,98255.19
2022-09-09T07:40:17.547Z,98250.69
2022-09-09T07:42:43.941Z,98256.00
2022-09-09T07:45:10.404Z,98261.34
2022-09-09T07:47:36.797Z,98259.59
2022-09-09T07:50:03.315Z,98256.91
2022-09-09T07:52:29.684Z,98264.06
2022-09-09T07:54:57.497Z,98265.88
2022-09-09T07:57:24.018Z,98262.16
2022-09-09T07:59:50.357Z,98267.50
2022-09-09T08:02:16.755Z,98264.75
2022-09-09T08:04:43.084Z,98271.72
2022-09-09T08:07:09.496Z,98265.25
2022-09-09T08:09:35.928Z,98269.59
2022-09-09T08:12:02.486Z,98260.84
2022-09-09T08:14:28.896Z,98269.06
2022-09-09T08:16:55.625Z,98267.03
2022-09-09T08:19:22.017Z,98260.69
2022-09-09T08:21:49.984Z,98268.16
2022-09-09T08:24:16.369Z,98269.09
2022-09-09T08:26:43.934Z,98267.28
2022-09-09T08:29:11.223Z,98269.03
2022-09-09T08:31:38.684Z,98260.59
2022-09-09T08:34:06.728Z,98270.47
2022-09-09T08:36:34.874Z,98272.69
2022-09-09T08:39:01.402Z,98280.44
2022-09-09T08:41:36.441Z,98283.19
2022-09-09T08:44:05.677Z,98285.75
2022-09-09T08:46:52.396Z,98285.44
2022-09-09T08:49:21.688Z,98284.97
2022-09-09T08:51:49.163Z,98288.16
2022-09-09T08:54:21.916Z,98291.38
2022-09-09T08:57:01.879Z,98291.28
2022-09-09T08:59:28.255Z,98291.72
2022-09-09T09:01:54.610Z,98295.31
2022-09-09T09:04:29.942Z,98298.84
2022-09-09T09:07:02.455Z,98299.25
2022-09-09T09:09:38.065Z,98300.81
2022-09-09T09:12:10.530Z,98314.25
2022-09-09T09:14:38.494Z,98300.59
2022-09-09T09:17:07.309Z,98310.84
2022-09-09T09:19:35.617Z,98310.75
2022-09-09T09:22:11.435Z,98308.88
2022-09-09T09:24:37.823Z,98305.78
2022-09-09T09:27:19.471Z,98315.53
2022-09-09T09:30:17.499Z,98315.88
2022-09-09T09:32:35.949Z,98306.03
2022-09-09T09:35:05.400Z,98303.88
2022-09-09T09:37:36.470Z,98304.84
2022-09-09T09:40:10.324Z,98303.84
2022-09-09T09:42:36.750Z,98308.34
2022-09-09T09:45:16.111Z,98295.28
2022-09-09T09:47:42.533Z,98295.75
2022-09-09T09:50:19.986Z,98298.25
2022-09-09T09:52:54.851Z,98298.69
2022-09-09T09:55:21.749Z,98293.00
2022-09-09T09:57:48.146Z,98297.28
2022-09-09T10:00:15.078Z,98298.75
2022-09-09T10:02:44.248Z,98294.19
2022-09-09T10:05:26.544Z,98291.28
2022-09-09T10:08:03.395Z,98293.94
2022-09-09T10:10:40.223Z,98297.47
2022-09-09T10:13:12.577Z,98296.72
2022-09-09T10:15:57.449Z,98305.94
2022-09-09T10:18:42.575Z,98309.44
2022-09-09T10:21:09.042Z,98311.00
2022-09-09T10:23:35.408Z,98309.28
2022-09-09T10:26:09.143Z,98306.41
2022-09-09T10:28:35.626Z,98294.72
2022-09-09T10:31:11.056Z,98291.03
2022-09-09T10:33:43.660Z,98295.38
2022-09-09T10:36:13.040Z,98283.38
2022-09-09T10:38:44.482Z,98295.97
2022-09-09T10:41:31.169Z,98292.38
2022-09-09T10:44:07.251Z,98296.66
2022-09-09T10:46:36.962Z,98293.44
2022-09-09T10:49:13.460Z,98295.22
2022-09-09T10:51:42.498Z,98296.72
2022-09-09T10:54:08.939Z,98297.91
2022-09-09T10:56:35.729Z,98298.00
2022-09-09T10:59:17.487Z,98283.06
2022-09-09T11:01:50.422Z,98295.03
2022-09-09T11:04:18.325Z,98289.81
2022-09-09T11:06:48.433Z,98276.03
2022-09-09T11:09:19.553Z,98282.75
2022-09-09T11:11:50.720Z,98289.81
2022-09-09T11:14:40.053Z,98279.28
2022-09-09T11:17:15.289Z,98281.16
2022-09-09T11:19:43.040Z,98283.16
2022-09-09T11:22:16.431Z,98279.41
2022-09-09T11:24:46.515Z,98278.72
2022-09-09T11:27:20.488Z,98276.59
2022-09-09T11:29:48.520Z,98274.22
2022-09-09T11:32:14.901Z,98273.06
2022-09-09T11:34:52.072Z,98281.91
2022-09-09T11:37:39.072Z,98283.75
2022-09-09T11:40:24.331Z,98278.19
2022-09-09T11:43:02.232Z,98278.69
2022-09-09T11:45:30.183Z,98280.97
2022-09-09T11:48:00.782Z,98296.16
2022-09-09T11:50:27.129Z,98287.78
2022-09-09T11:53:04.390Z,98280.94
2022-09-09T11:55:33.956Z,98292.41
2022-09-09T11:58:01.365Z,98292.03
2022-09-09T12:00:34.034Z,98294.41
2022-09-09T12:03:00.361Z,98289.66
2022-09-09T12:05:37.352Z,98286.97
2022-09-09T12:08:04.554Z,98280.28
2022-09-09T12:10:33.513Z,98281.56
2022-09-09T12:13:10.525Z,98271.81
2022-09-09T12:15:47.383Z,98271.63
2022-09-09T12:18:17.185Z,98272.34
2022-09-09T12:20:56.002Z,98268.00
2022-09-09T12:23:22.347Z,98261.19
2022-09-09T12:26:01.852Z,98257.00
2022-09-09T12:28:48.752Z,98253.25
2022-09-09T12:31:35.952Z,98252.06
2022-09-09T12:34:11.011Z,98262.94
2022-09-09T12:36:38.805Z,98255.81
2022-09-09T12:39:31.293Z,98247.81
2022-09-09T12:42:00.613Z,98262.78
2022-09-09T12:44:30.361Z,98250.59
2022-09-09T12:47:00.360Z,98246.59
2022-09-09T12:49:39.443Z,98246.28
2022-09-09T12:52:06.639Z,98245.50
2022-09-09T12:54:37.325Z,98241.81
2022-09-09T12:57:04.349Z,98244.50
2022-09-09T12:59:38.551Z,98239.72
2022-09-09T13:02:12.918Z,98245.84
2022-09-09T13:04:39.364Z,98236.16
2022-09-09T13:07:11.026Z,98238.50
2022-09-09T13:09:37.676Z,98234.63
2022-09-09T13:12:08.267Z,98245.28
2022-09-09T13:14:38.215Z,98241.31
2022-09-09T13:17:06.315Z,98243.56
2022-09-09T13:19:40.740Z,98256.63
2022-09-09T13:22:22.138Z,98248.69
2022-09-09T13:24:48.509Z,98253.34
2022-09-09T13:27:25.373Z,98248.69
2022-09-09T13:29:52.638Z,98241.50
2022-09-09T13:32:19.084Z,98240.50
2022-09-09T13:34:55.473Z,98225.63
2022-09-09T13:37:31.186Z,98219.47
2022-09-09T13:39:57.648Z,98221.72
2022-09-09T13:42:28.824Z,98218.75
2022-09-09T13:44:56.567Z,98214.03
2022-09-09T13:47:27.620Z,98219.94
2022-09-09T13:49:54.237Z,98206.66
2022-09-09T13:52:20.675Z,98207.75
2022-09-09T13:54:50.816Z,98204.34
2022-09-09T13:57:26.397Z,98202.03
2022-09-09T14:00:04.593Z,98204.13
2022-09-09T14:02:32.229Z,98219.59
2022-09-09T14:04:58.639Z,98217.50
2022-09-09T14:07:26.208Z,98215.03
2022-09-09T14:09:53.445Z,98211.50
2022-09-09T14:12:20.033Z,98202.00
2022-09-09T14:14:46.417Z,98208.88
2022-09-09T14:17:12.771Z,98210.97
2022-09-09T14:19:39.171Z,98209.75
2022-09-09T14:22:05.546Z,98209.84
2022-09-09T14:24:31.978Z,98212.97
2022-09-09T14:26:58.292Z,98212.53
2022-09-09T14:29:26.046Z,98208.88
2022-09-09T14:31:52.413Z,98210.53
2022-09-09T14:34:19.284Z,98215.81
2022-09-09T14:36:47.871Z,98217.25
2022-09-09T14:39:14.182Z,98216.78
2022-09-09T14:41:40.555Z,98207.66
2022-09-09T14:44:06.886Z,98214.63
2022-09-09T14:46:34.242Z,98212.28
2022-09-09T14:49:00.758Z,98212.47
2022-09-09T14:51:29.321Z,98217.22
2022-09-09T14:53:57.563Z,98217.06
2022-09-09T14:56:25.473Z,98220.53
2022-09-09T14:58:53.541Z,98220.97
2022-09-09T15:01:21.509Z,98219.03
2022-09-09T15:03:52.616Z,98221.63
2022-09-09T15:06:19.786Z,98216.53
2022-09-09T15:08:46.594Z,98217.56
2022-09-09T15:11:15.352Z,98216.88
2022-09-09T15:13:43.498Z,98220.69
2022-09-09T15:16:11.526Z,98215.31
2022-09-09T15:18:41.244Z,98219.13
2022-09-09T15:21:07.558Z,98223.81
2022-09-09T15:23:34.206Z,98235.09
2022-09-09T15:26:00.579Z,98223.59
2022-09-09T15:28:27.022Z,98227.44
2022-09-09T15:30:54.331Z,98223.19
2022-09-09T15:33:21.897Z,98223.41
2022-09-09T15:35:48.519Z,98223.72
2022-09-09T15:38:16.020Z,98220.41
2022-09-09T15:40:42.367Z,98220.66
2022-09-09T15:43:10.338Z,98222.75
2022-09-09T15:45:36.707Z,98225.56
2022-09-09T15:48:04.005Z,98233.66
2022-09-09T15:50:33.333Z,98219.31
2022-09-09T15:53:00.067Z,98225.91
2022-09-09T15:55:26.590Z,98236.91
2022-09-09T15:57:55.969Z,98233.50
2022-09-09T16:00:24.222Z,98233.69
2022-09-09T16:02:50.700Z,98236.63
2022-09-09T16:05:17.389Z,98230.34
2022-09-09T16:07:45.877Z,98237.53
2022-09-09T16:10:14.524Z,98238.59
2022-09-09T16:12:41.033Z,98224.44
2022-09-09T16:15:08.299Z,98223.66
2022-09-09T16:17:38.624Z,98228.06
2022-09-09T16:20:07.840Z,98224.59
2022-09-09T16:22:34.215Z,98219.22
2022-09-09T16:25:00.778Z,98229.13
2022-09-09T16:27:27.157Z,98230.97
2022-09-09T16:29:54.460Z,98225.69
2022-09-09T16:32:21.244Z,98228.38
2022-09-09T16:34:47.613Z,98221.44
2022-09-09T16:37:13.982Z,98226.91
2022-09-09T16:39:40.323Z,98231.56
2022-09-09T16:42:06.874Z,98229.03
2022-09-09T16:44:33.193Z,98237.94
2022-09-09T16:47:00.937Z,98233.69
2022-09-09T16:49:29.160Z,98231.09
2022-09-09T16:51:58.154Z,98236.63
2022-09-09T16:54:26.133Z,98240.41
2022-09-09T16:56:52.538Z,98238.78
2022-09-09T16:59:20.094Z,98245.19
2022-09-09T17:01:47.645Z,98243.66
2022-09-09T17:04:17.203Z,98244.06
2022-09-09T17:06:46.544Z,98253.13
2022-09-09T17:09:13.893Z,98258.03
2022-09-09T17:11:40.413Z,98261.88
2022-09-09T17:14:08.586Z,98252.06
2022-09-09T17:16:35.248Z,98255.88
2022-09-09T17:19:04.695Z,98258.75
2022-09-09T17:21:31.834Z,98264.13
2022-09-09T17:23:58.569Z,98263.50
2022-09-09T17:26:27.567Z,98260.38
2022-09-09T17:28:59.441Z,98268.50
2022-09-09T17:31:26.730Z,98267.72
2022-09-09T17:33:53.695Z,98265.19
2022-09-09T17:36:26.536Z,98269.88
2022-09-09T17:38:53.303Z,98272.88
2022-09-09T17:41:22.248Z,98260.69
2022-09-09T17:43:49.341Z,98264.50
2022-09-09T17:46:17.116Z,98260.44
2022-09-09T17:48:45.598Z,98256.56
2022-09-09T17:51:16.957Z,98264.88
2022-09-09T17:53:44.461Z,98256.03
2022-09-09T17:56:12.082Z,98255.31
2022-09-09T17:58:39.356Z,98258.34
2022-09-09T18:01:06.698Z,98255.00
2022-09-09T18:03:51.619Z,98260.47
2022-09-09T18:06:19.745Z,98258.09
2022-09-09T18:08:50.292Z,98253.81
2022-09-09T18:11:17.717Z,98264.13
2022-09-09T18:13:44.269Z,98272.50
2022-09-09T18:16:10.920Z,98268.25
2022-09-09T18:18:37.493Z,98268.47
2022-09-09T18:21:06.583Z,98275.91
2022-09-09T18:23:40.804Z,98273.03
2022-09-09T18:26:11.688Z,98286.28
2022-09-09T18:28:38.857Z,98288.75
2022-09-09T18:31:10.273Z,98281.19
2022-09-09T18:33:37.452Z,98282.56
2022-09-09T18:36:05.024Z,98282.63
2022-09-09T18:38:33.068Z,98285.75
2022-09-09T18:40:59.450Z,98289.00
2022-09-09T18:43:25.769Z,98288.41
2022-09-09T18:45:52.138Z,98294.31
2022-09-09T18:48:18.482Z,98293.69
2022-09-09T18:50:44.954Z,98300.28
2022-09-09T18:53:11.311Z,98301.94
2022-09-09T18:55:37.906Z,98306.34
2022-09-09T18:58:04.241Z,98308.16
2022-09-09T19:00:32.661Z,98307.69
2022-09-09T19:02:59.061Z,98310.91
2022-09-09T19:05:25.389Z,98304.94
2022-09-09T19:07:51.741Z,98311.91
2022-09-09T19:10:18.052Z,98312.69
2022-09-09T19:12:44.790Z,98311.22
2022-09-09T19:15:11.209Z,98311.69
2022-09-09T19:17:38.192Z,98314.31
2022-09-09T19:20:05.666Z,98309.53
2022-09-09T19:22:32.197Z,98312.03
2022-09-09T19:25:03.367Z,98302.22
2022-09-09T19:27:30.277Z,98306.47
2022-09-09T19:29:57.211Z,98300.69
2022-09-09T19:35:11.077Z,98301.81
2022-09-09T19:37:37.475Z,98298.78
2022-09-09T19:40:05.401Z,98301.03
2022-09-09T19:42:32.122Z,98307.19
2022-09-09T19:44:58.549Z,98312.28
2022-09-09T19:47:24.973Z,98309.44
2022-09-09T19:49:51.519Z,98309.28
2022-09-09T19:52:18.503Z,98300.31
2022-09-09T19:54:45.393Z,98299.25
2022-09-09T19:57:11.733Z,98310.66
2022-09-09T19:59:38.171Z,98314.16
2022-09-09T20:02:04.601Z,98311.53
2022-09-09T20:04:31.191Z,98319.44
2022-09-09T20:06:57.560Z,98320.13
2022-09-09T20:09:26.045Z,98317.47
2022-09-09T20:11:53.211Z,98315.66
2022-09-09T20:14:19.766Z,98323.56
2022-09-09T20:16:46.624Z,98328.03
2022-09-09T20:19:13.852Z,98332.53
2022-09-09T20:21:45.241Z,98328.09
2022-09-09T20:24:13.927Z,98333.56
2022-09-09T20:26:40.854Z,98339.06
2022-09-09T20:29:11.226Z,98342.66
2022-09-09T20:31:43.107Z,98341.88
2022-09-09T20:34:14.248Z,98338.13
2022-09-09T20:36:41.387Z,98343.53
2022-09-09T20:39:12.576Z,98340.94
2022-09-09T20:41:39.989Z,98343.81
2022-09-09T20:44:08.208Z,98338.56
2022-09-09T20:46:38.155Z,98339.69
2022-09-09T20:49:06.126Z,98335.19
2022-09-09T20:51:33.631Z,98338.88
2022-09-09T20:54:01.421Z,98344.97
2022-09-09T20:56:28.467Z,98344.19
2022-09-09T20:58:55.051Z,98339.56
2022-09-09T21:01:21.632Z,98344.19
2022-09-09T21:03:48.545Z,98343.31
2022-09-09T21:06:15.029Z,98340.63
2022-09-09T21:08:41.495Z,98336.31
2022-09-09T21:11:08.219Z,98335.50
2022-09-09T21:13:39.523Z,98347.00
2022-09-09T21:16:07.206Z,98345.19
2022-09-09T21:18:34.658Z,98353.22
2022-09-09T21:21:01.593Z,98352.44
2022-09-09T21:23:28.232Z,98360.66
2022-09-09T21:25:54.968Z,98368.75
2022-09-09T21:28:21.815Z,98372.38
2022-09-09T21:30:50.447Z,98371.56
2022-09-09T21:33:17.848Z,98369.84
2022-09-09T21:35:44.728Z,98363.81
2022-09-09T21:38:16.153Z,98366.50
2022-09-09T21:40:42.693Z,98364.75
2022-09-09T21:43:12.240Z,98367.78
2022-09-09T21:45:39.318Z,98365.91
2022-09-09T21:48:06.074Z,98363.66
2022-09-09T21:50:36.392Z,98361.16
2022-09-09T21:53:03.082Z,98354.94
2022-09-09T21:55:32.709Z,98359.41
2022-09-09T21:57:59.196Z,98354.88
2022-09-09T22:00:25.563Z,98357.56
2022-09-09T22:02:52.120Z,98357.75
2022-09-09T22:05:18.526Z,98358.59
2022-09-09T22:07:44.901Z,98352.19
2022-09-09T22:10:11.410Z,98357.56
2022-09-09T22:12:38.088Z,98357.44
2022-09-09T22:15:05.186Z,98349.53
2022-09-09T22:17:31.788Z,98343.34
2022-09-09T22:19:58.308Z,98346.84
2022-09-09T22:22:24.859Z,98346.16
2022-09-09T22:24:51.893Z,98340.69
2022-09-09T22:27:18.391Z,98336.28
2022-09-09T22:29:44.742Z,98339.75
2022-09-09T22:32:11.191Z,98346.72
2022-09-09T22:34:37.768Z,98337.06
2022-09-09T22:37:04.783Z,98343.16
2022-09-09T22:39:31.640Z,98345.09
2022-09-09T22:41:58.662Z,98338.88
2022-09-09T22:44:26.391Z,98337.75
2022-09-09T22:46:53.311Z,98345.84
2022-09-09T22:49:20.070Z,98332.66
2022-09-09T22:51:46.410Z,98332.72
2022-09-09T22:54:12.927Z,98345.31
2022-09-09T22:56:39.286Z,98333.00
2022-09-09T22:59:05.808Z,98328.63
2022-09-09T23:01:32.739Z,98349.22
2022-09-09T23:03:59.570Z,98331.34
2022-09-09T23:06:26.880Z,98333.25
2022-09-09T23:08:57.650Z,98330.69
2022-09-09T23:11:34.323Z,98335.44
2022-09-09T23:14:01.989Z,98330.28
2022-09-09T23:16:39.597Z,98337.38
2022-09-09T23:19:10.809Z,98331.34
2022-09-09T23:21:38.291Z,98338.69
2022-09-09T23:24:05.813Z,98329.88
2022-09-09T23:26:33.000Z,98328.88
2022-09-09T23:28:59.909Z,98333.22
2022-09-09T23:31:27.266Z,98330.75
2022-09-09T23:33:58.099Z,98330.06
2022-09-09T23:36:25.061Z,98336.53
2022-09-09T23:38:51.874Z,98338.41
2022-09-09T23:41:22.326Z,98346.47
2022-09-09T23:43:48.987Z,98342.09
2022-09-09T23:46:16.521Z,98330.53
2022-09-09T23:48:43.328Z,98336.81
2022-09-09T23:51:11.119Z,98333.19
2022-09-09T23:53:37.553Z,98340.31
2022-09-09T23:56:05.111Z,98342.09
2022-09-09T23:58:31.907Z,98349.22
